Time;durP1;ratioP1;P1;durP2;ratioP2;P2;SDS_P1;SDS_P2;PMS_P1;PMS_P2;Temp;Humidity;BMP_temperature;BMP_pressure;BME280_temperature;BME280_humidity;BME280_pressure;Samples;Min_cycle;Max_cycle;Signal;HPM_P1;HPM_P2
2023/06/17 00:02:13;;;;;;;5.50;4.80;;;17.70;99.90;;;;;;5091893;28;20222;-59
2023/06/17 00:04:42;;;;;;;6.10;5.60;;;17.70;99.90;;;;;;5088263;28;20234;-59
2023/06/17 00:07:10;;;;;;;6.40;5.07;;;17.70;99.90;;;;;;5091494;28;20223;-59
2023/06/17 00:09:40;;;;;;;5.87;5.30;;;17.70;99.90;;;;;;5092233;28;20216;-59
2023/06/17 00:12:10;;;;;;;5.33;4.83;;;17.60;99.90;;;;;;5090461;28;20215;-59
2023/06/17 00:14:40;;;;;;;7.27;5.37;;;17.70;99.90;;;;;;5091120;28;20661;-59
2023/06/17 00:17:10;;;;;;;6.23;5.33;;;17.60;99.90;;;;;;5088010;28;20242;-60
2023/06/17 00:19:40;;;;;;;7.00;5.70;;;17.60;99.90;;;;;;5086072;28;20217;-59
2023/06/17 00:22:09;;;;;;;5.90;5.30;;;17.60;99.90;;;;;;5085880;28;20227;-59
2023/06/17 00:24:38;;;;;;;7.60;4.80;;;17.50;99.90;;;;;;5089472;28;20234;-59
2023/06/17 00:27:06;;;;;;;6.50;5.23;;;17.50;99.90;;;;;;5088639;28;20213;-59
2023/06/17 00:29:35;;;;;;;5.27;4.87;;;17.50;99.90;;;;;;5087926;28;20681;-59
2023/06/17 00:32:05;;;;;;;6.10;5.37;;;17.40;99.90;;;;;;5083288;28;20215;-59
2023/06/17 00:34:33;;;;;;;5.80;5.17;;;17.40;99.90;;;;;;5089091;28;20694;-60
2023/06/17 00:37:02;;;;;;;5.70;5.00;;;17.40;99.90;;;;;;5071770;28;20226;-59
2023/06/17 00:39:31;;;;;;;5.27;4.87;;;17.30;99.90;;;;;;5087638;28;20231;-59
2023/06/17 00:42:01;;;;;;;6.43;5.57;;;17.30;99.90;;;;;;5082091;28;20202;-60
2023/06/17 00:44:30;;;;;;;6.20;5.10;;;17.30;99.90;;;;;;5089795;28;20614;-59
2023/06/17 00:46:59;;;;;;;6.43;5.17;;;17.30;99.90;;;;;;5089593;28;20218;-59
2023/06/17 00:49:34;;;;;;;7.77;5.47;;;17.40;99.90;;;;;;5088542;28;20231;-59
2023/06/17 00:52:04;;;;;;;5.60;4.70;;;17.40;99.90;;;;;;5086350;28;20217;-59
2023/06/17 00:54:53;;;;;;;5.47;4.80;;;17.50;99.90;;;;;;5086295;28;20755;-60
2023/06/17 00:57:23;;;;;;;5.23;4.70;;;17.60;99.90;;;;;;5090607;28;20189;-59
2023/06/17 00:59:52;;;;;;;7.03;4.77;;;17.60;99.90;;;;;;5085035;28;20591;-59
2023/06/17 01:02:25;;;;;;;5.10;4.70;;;17.60;99.90;;;;;;5086196;28;20215;-59
2023/06/17 01:04:57;;;;;;;5.70;4.83;;;17.60;99.90;;;;;;5086228;28;20225;-59
2023/06/17 01:07:50;;;;;;;5.23;4.73;;;17.60;99.90;;;;;;5087965;28;20218;-59
2023/06/17 01:10:25;;;;;;;5.13;4.73;;;17.60;99.90;;;;;;5087734;28;20215;-59
2023/06/17 01:12:56;;;;;;;5.10;4.63;;;17.60;99.90;;;;;;5089134;28;20211;-59
2023/06/17 01:15:25;;;;;;;4.90;4.60;;;17.60;99.90;;;;;;5084504;28;20194;-59
2023/06/17 01:17:54;;;;;;;5.30;4.80;;;17.60;99.90;;;;;;5090669;28;20194;-59
2023/06/17 01:20:26;;;;;;;5.80;4.53;;;17.60;99.90;;;;;;5083316;28;20318;-59
2023/06/17 01:22:56;;;;;;;5.40;4.90;;;17.60;99.90;;;;;;5086628;28;20216;-59
2023/06/17 01:25:29;;;;;;;5.13;4.63;;;17.50;99.90;;;;;;5087755;28;20219;-59
2023/06/17 01:28:00;;;;;;;6.53;4.77;;;17.50;99.90;;;;;;5087848;28;20211;-59
2023/06/17 01:30:29;;;;;;;7.17;5.10;;;17.40;99.90;;;;;;5084114;28;20913;-59
2023/06/17 01:32:58;;;;;;;5.77;4.77;;;17.40;99.90;;;;;;5088353;28;20209;-59
2023/06/17 01:35:32;;;;;;;9.93;5.43;;;17.30;99.90;;;;;;5083354;28;20285;-59
2023/06/17 01:38:05;;;;;;;9.57;5.03;;;17.40;99.90;;;;;;5087918;28;20219;-59
2023/06/17 01:40:39;;;;;;;15.00;4.93;;;17.40;99.90;;;;;;5080808;28;20219;-59
2023/06/17 01:43:09;;;;;;;5.27;4.77;;;17.30;99.90;;;;;;5080797;28;20224;-59
2023/06/17 01:45:39;;;;;;;9.53;5.27;;;17.30;99.90;;;;;;5084976;28;20542;-59
2023/06/17 01:48:07;;;;;;;5.53;5.03;;;17.30;99.90;;;;;;5090029;28;20251;-59
2023/06/17 01:50:36;;;;;;;5.57;5.10;;;17.20;99.90;;;;;;5085868;28;20688;-59
2023/06/17 01:53:04;;;;;;;7.23;5.40;;;17.10;99.90;;;;;;5087341;28;20220;-59
2023/06/17 01:55:33;;;;;;;5.63;5.13;;;17.00;99.90;;;;;;5083896;28;20213;-59
2023/06/17 01:58:02;;;;;;;7.00;5.33;;;17.00;99.90;;;;;;5068724;28;20222;-59
2023/06/17 02:00:31;;;;;;;5.57;5.07;;;16.90;99.90;;;;;;5083870;28;20242;-59
2023/06/17 02:02:59;;;;;;;7.17;5.83;;;16.80;99.90;;;;;;5083893;28;20189;-59
2023/06/17 02:05:27;;;;;;;11.17;5.90;;;16.70;99.90;;;;;;5083770;28;20230;-59
2023/06/17 02:07:59;;;;;;;5.97;5.47;;;16.70;99.90;;;;;;5088398;28;20218;-59
2023/06/17 02:10:27;;;;;;;9.33;5.53;;;16.60;99.90;;;;;;5087195;28;20310;-59
2023/06/17 02:12:55;;;;;;;6.00;5.50;;;16.50;99.90;;;;;;5089772;28;20220;-59
2023/06/17 02:15:26;;;;;;;8.10;5.40;;;16.40;99.90;;;;;;5089335;28;20205;-59
2023/06/17 02:17:55;;;;;;;6.77;5.40;;;16.40;99.90;;;;;;5091204;28;20207;-59
2023/06/17 02:20:24;;;;;;;6.57;5.87;;;16.40;99.90;;;;;;5091562;28;20213;-59
2023/06/17 02:22:52;;;;;;;5.60;5.20;;;16.30;99.90;;;;;;5092126;28;20218;-59
2023/06/17 02:25:20;;;;;;;6.60;5.97;;;16.30;99.90;;;;;;5091035;28;20225;-59
2023/06/17 02:27:48;;;;;;;5.93;5.43;;;16.30;99.90;;;;;;5089689;28;20246;-59
2023/06/17 02:30:17;;;;;;;9.43;5.83;;;16.30;99.90;;;;;;5088907;28;20207;-59
2023/06/17 02:32:47;;;;;;;7.23;5.27;;;16.20;99.90;;;;;;5089759;28;20247;-59
2023/06/17 02:35:16;;;;;;;6.87;5.43;;;16.20;99.90;;;;;;5088476;28;20223;-59
2023/06/17 02:37:44;;;;;;;9.60;5.93;;;16.10;99.90;;;;;;5085285;28;20220;-60
2023/06/17 02:40:13;;;;;;;7.73;6.10;;;16.10;99.90;;;;;;5087665;28;20217;-59
2023/06/17 02:42:41;;;;;;;6.43;5.80;;;16.00;99.90;;;;;;5074441;28;20238;-59
2023/06/17 02:45:11;;;;;;;7.20;5.97;;;15.90;99.90;;;;;;5090776;28;20199;-59
2023/06/17 02:47:40;;;;;;;6.53;5.93;;;15.90;99.90;;;;;;5088609;28;20202;-60
2023/06/17 02:50:11;;;;;;;6.77;5.83;;;15.90;99.90;;;;;;5091252;28;21187;-59
2023/06/17 02:52:39;;;;;;;7.63;6.60;;;15.80;99.90;;;;;;5087758;28;20225;-59
2023/06/17 02:55:08;;;;;;;7.07;6.23;;;15.70;99.90;;;;;;5086504;28;20688;-59
2023/06/17 02:57:36;;;;;;;7.30;6.20;;;15.70;99.90;;;;;;5087062;28;20227;-59
2023/06/17 03:00:06;;;;;;;6.57;5.97;;;15.60;99.90;;;;;;5084792;28;20206;-59
2023/06/17 03:02:34;;;;;;;10.70;6.30;;;15.50;99.90;;;;;;5090019;28;20223;-59
2023/06/17 03:05:06;;;;;;;8.30;6.70;;;15.50;99.90;;;;;;5090880;28;20221;-60
2023/06/17 03:07:36;;;;;;;16.50;7.03;;;15.50;99.90;;;;;;5090931;28;21041;-59
2023/06/17 03:10:05;;;;;;;8.63;7.00;;;15.40;99.90;;;;;;5093689;28;20757;-59
2023/06/17 03:12:33;;;;;;;7.97;7.00;;;15.40;99.90;;;;;;5092175;28;20228;-60
2023/06/17 03:15:02;;;;;;;11.60;6.50;;;15.40;99.90;;;;;;5093330;28;20205;-59
2023/06/17 03:17:31;;;;;;;7.30;6.70;;;15.30;99.90;;;;;;5089915;28;20256;-59
2023/06/17 03:19:59;;;;;;;10.37;7.13;;;15.30;99.90;;;;;;5092313;28;20215;-59
2023/06/17 03:22:28;;;;;;;7.70;6.93;;;15.30;99.90;;;;;;5092329;28;20554;-59
2023/06/17 03:24:58;;;;;;;9.30;7.10;;;15.30;99.90;;;;;;5092719;28;20227;-59
2023/06/17 03:27:27;;;;;;;7.93;7.20;;;15.30;99.90;;;;;;5091774;28;20287;-59
2023/06/17 03:29:55;;;;;;;9.93;7.23;;;15.30;99.90;;;;;;5092780;28;20211;-59
2023/06/17 03:32:24;;;;;;;7.47;6.80;;;15.30;99.90;;;;;;5089521;28;20234;-59
2023/06/17 03:34:53;;;;;;;10.50;7.40;;;15.30;99.90;;;;;;5072771;28;20223;-59
2023/06/17 03:37:23;;;;;;;7.93;7.17;;;15.30;99.90;;;;;;5091353;28;20606;-59
2023/06/17 03:39:51;;;;;;;8.03;6.80;;;15.30;99.90;;;;;;5088490;28;20253;-59
2023/06/17 03:42:21;;;;;;;7.60;6.90;;;15.30;99.90;;;;;;5069639;28;20547;-59
2023/06/17 03:44:50;;;;;;;11.50;7.07;;;15.40;99.90;;;;;;5087332;28;20279;-59
2023/06/17 03:47:18;;;;;;;9.27;7.43;;;15.40;99.90;;;;;;5089058;28;20243;-59
2023/06/17 03:49:46;;;;;;;13.10;7.67;;;15.40;99.90;;;;;;5089240;28;20224;-59
2023/06/17 03:52:15;;;;;;;9.37;7.67;;;15.40;99.90;;;;;;5088511;28;20220;-59
2023/06/17 03:54:43;;;;;;;7.70;6.70;;;15.40;99.90;;;;;;5089353;28;20223;-59
2023/06/17 03:57:12;;;;;;;7.80;7.10;;;15.40;99.90;;;;;;5086244;28;20658;-59
2023/06/17 03:59:42;;;;;;;7.10;6.40;;;15.50;99.90;;;;;;5090066;28;20210;-59
2023/06/17 04:02:10;;;;;;;8.50;6.20;;;15.50;99.90;;;;;;5086906;28;20219;-59
2023/06/17 04:04:39;;;;;;;8.87;6.73;;;15.50;99.90;;;;;;5090043;28;20223;-59
2023/06/17 04:07:07;;;;;;;9.67;7.10;;;15.60;99.90;;;;;;5082757;28;20220;-59
2023/06/17 04:09:36;;;;;;;7.37;6.20;;;15.50;99.90;;;;;;5088584;28;20223;-59
2023/06/17 04:12:05;;;;;;;8.10;7.10;;;15.50;99.90;;;;;;5090633;28;20207;-59
2023/06/17 04:14:33;;;;;;;6.63;6.00;;;15.50;99.90;;;;;;5084333;28;20225;-59
2023/06/17 04:17:03;;;;;;;6.70;6.10;;;15.50;99.90;;;;;;5085481;28;20234;-59
2023/06/17 04:19:37;;;;;;;8.33;6.13;;;15.50;99.90;;;;;;5085519;28;20677;-59
2023/06/17 04:22:06;;;;;;;7.00;6.40;;;15.60;99.90;;;;;;5090189;28;20224;-59
2023/06/17 04:24:34;;;;;;;7.13;6.13;;;15.60;99.90;;;;;;5090044;28;20857;-59
2023/06/17 04:27:02;;;;;;;6.47;5.93;;;15.60;99.90;;;;;;5089931;28;20199;-59
2023/06/17 04:29:34;;;;;;;7.30;6.20;;;15.70;99.90;;;;;;5086683;28;20219;-59
2023/06/17 04:32:05;;;;;;;6.87;6.27;;;15.70;99.90;;;;;;5088391;28;20735;-59
2023/06/17 04:34:38;;;;;;;7.03;6.10;;;15.80;99.90;;;;;;5089283;28;20231;-59
2023/06/17 04:37:06;;;;;;;9.53;5.80;;;15.80;99.90;;;;;;5087789;28;20750;-59
2023/06/17 04:39:35;;;;;;;6.67;6.07;;;15.90;99.90;;;;;;5087734;28;20234;-59
2023/06/17 04:42:04;;;;;;;7.17;5.90;;;15.90;99.90;;;;;;5088083;28;20200;-59
2023/06/17 04:44:33;;;;;;;7.47;6.00;;;16.00;99.90;;;;;;5065727;28;20252;-58
2023/06/17 04:47:02;;;;;;;6.10;5.53;;;16.10;99.90;;;;;;5086802;28;20225;-58
2023/06/17 04:49:38;;;;;;;6.63;5.80;;;16.10;99.90;;;;;;5086844;28;20224;-59
2023/06/17 04:52:07;;;;;;;6.10;5.60;;;16.20;99.90;;;;;;5085435;28;20223;-59
2023/06/17 04:54:35;;;;;;;7.80;6.03;;;16.20;99.90;;;;;;5082584;28;20221;-59
2023/06/17 04:57:04;;;;;;;6.30;5.43;;;16.20;99.90;;;;;;5088180;28;20184;-59
2023/06/17 04:59:32;;;;;;;7.73;6.00;;;16.20;99.90;;;;;;5086772;28;20302;-59
2023/06/17 05:02:01;;;;;;;9.43;5.90;;;16.20;99.90;;;;;;5085631;28;20230;-59
2023/06/17 05:04:29;;;;;;;6.60;6.00;;;16.30;99.90;;;;;;5079938;28;20213;-59
2023/06/17 05:06:59;;;;;;;6.50;5.90;;;16.30;99.90;;;;;;5084845;28;20213;-58
2023/06/17 05:09:28;;;;;;;6.60;5.90;;;16.30;99.90;;;;;;5089082;28;20220;-58
2023/06/17 05:11:56;;;;;;;8.93;5.63;;;16.40;99.90;;;;;;5086821;28;20195;-59
2023/06/17 05:14:24;;;;;;;8.27;6.23;;;16.40;99.90;;;;;;5082811;28;21505;-59
2023/06/17 05:16:53;;;;;;;6.63;5.90;;;16.50;99.90;;;;;;5089134;28;20718;-59
2023/06/17 05:19:21;;;;;;;6.50;5.70;;;16.60;99.90;;;;;;5090119;28;20225;-59
2023/06/17 05:21:49;;;;;;;7.30;5.80;;;16.70;99.90;;;;;;5090084;28;20222;-59
2023/06/17 05:24:19;;;;;;;5.53;5.13;;;16.80;99.90;;;;;;5085710;28;20190;-59
2023/06/17 05:26:47;;;;;;;7.10;5.70;;;16.90;99.90;;;;;;5088489;28;20632;-59
2023/06/17 05:29:16;;;;;;;6.60;5.90;;;17.00;99.90;;;;;;5088259;28;20895;-59
2023/06/17 05:31:44;;;;;;;6.57;5.93;;;17.10;99.90;;;;;;5086500;28;20214;-59
2023/06/17 05:34:13;;;;;;;7.93;5.53;;;17.20;99.90;;;;;;5088471;28;20565;-59
2023/06/17 05:36:41;;;;;;;6.97;6.10;;;17.30;99.90;;;;;;5086057;28;20242;-59
2023/06/17 05:39:10;;;;;;;6.67;6.07;;;17.30;99.90;;;;;;5083161;28;20187;-59
2023/06/17 05:41:39;;;;;;;8.87;6.60;;;17.50;99.90;;;;;;5090332;28;20653;-59
2023/06/17 05:44:07;;;;;;;10.53;7.80;;;17.60;99.90;;;;;;5086823;28;20246;-59
2023/06/17 05:46:36;;;;;;;14.03;8.77;;;17.70;99.90;;;;;;5088841;28;20230;-59
2023/06/17 05:49:04;;;;;;;20.07;12.03;;;17.80;99.90;;;;;;5087589;28;20215;-59
2023/06/17 05:51:32;;;;;;;25.33;13.30;;;17.90;99.90;;;;;;5067469;28;20227;-59
2023/06/17 05:54:01;;;;;;;21.03;12.17;;;18.00;99.90;;;;;;5089717;28;20192;-59
2023/06/17 05:56:29;;;;;;;28.63;14.60;;;18.10;99.90;;;;;;5088747;28;20218;-59
2023/06/17 05:58:58;;;;;;;25.00;12.90;;;18.20;99.90;;;;;;5087787;28;20226;-59
2023/06/17 06:01:27;;;;;;;29.63;15.77;;;18.30;99.90;;;;;;5087740;28;20231;-59
2023/06/17 06:03:55;;;;;;;29.43;16.00;;;18.40;99.90;;;;;;5081959;28;20222;-59
2023/06/17 06:06:24;;;;;;;35.47;16.53;;;18.50;99.90;;;;;;5085909;28;20240;-59
2023/06/17 06:08:52;;;;;;;31.57;16.50;;;18.70;99.90;;;;;;5078449;28;20192;-59
2023/06/17 06:11:20;;;;;;;35.03;17.83;;;18.80;99.90;;;;;;5086734;28;20237;-59
2023/06/17 06:13:49;;;;;;;35.33;17.47;;;18.90;99.90;;;;;;5087929;28;20588;-60
2023/06/17 06:16:19;;;;;;;33.40;17.27;;;18.90;99.90;;;;;;5089098;28;20215;-60
2023/06/17 06:18:47;;;;;;;29.83;15.03;;;19.00;99.90;;;;;;5087284;28;20610;-59
2023/06/17 06:21:15;;;;;;;26.00;13.97;;;19.10;99.90;;;;;;5080960;28;20184;-59
2023/06/17 06:23:45;;;;;;;23.43;12.40;;;19.30;99.90;;;;;;5085755;28;20195;-59
2023/06/17 06:26:13;;;;;;;18.03;10.97;;;19.40;99.90;;;;;;5084371;28;20230;-59
2023/06/17 06:28:41;;;;;;;14.80;9.43;;;19.70;99.90;;;;;;5086689;28;20280;-59
2023/06/17 06:31:10;;;;;;;14.93;8.63;;;19.80;99.90;;;;;;5087145;28;20219;-59
2023/06/17 06:33:40;;;;;;;11.73;7.97;;;19.90;99.90;;;;;;5083978;28;20230;-59
2023/06/17 06:36:09;;;;;;;11.00;7.50;;;20.00;99.90;;;;;;5084428;28;20294;-54
2023/06/17 06:38:37;;;;;;;11.10;7.73;;;20.10;99.90;;;;;;5087021;28;20233;-59
2023/06/17 06:41:06;;;;;;;7.77;6.93;;;20.30;99.90;;;;;;5086642;28;20782;-60
2023/06/17 06:43:34;;;;;;;11.00;6.53;;;20.40;99.90;;;;;;5081912;28;20242;-59
2023/06/17 06:46:03;;;;;;;8.73;6.73;;;20.70;99.90;;;;;;5082796;28;20246;-59
2023/06/17 06:48:31;;;;;;;8.83;6.30;;;20.80;99.90;;;;;;5088694;28;20226;-59
2023/06/17 06:51:01;;;;;;;10.67;6.10;;;21.10;99.90;;;;;;5079488;28;20228;-60
2023/06/17 06:53:29;;;;;;;9.73;6.00;;;21.30;99.90;;;;;;5084774;28;20226;-59
2023/06/17 06:55:57;;;;;;;7.17;6.00;;;21.40;99.90;;;;;;5061342;28;20223;-60
2023/06/17 06:58:26;;;;;;;12.27;6.20;;;21.70;99.90;;;;;;5070163;28;20216;-60
2023/06/17 07:00:54;;;;;;;8.90;5.83;;;21.70;99.90;;;;;;5086360;28;20246;-59
2023/06/17 07:03:23;;;;;;;6.57;5.57;;;21.70;99.90;;;;;;5089965;28;20546;-60
2023/06/17 07:05:51;;;;;;;7.93;6.00;;;21.80;99.90;;;;;;5092248;28;20579;-59
2023/06/17 07:08:21;;;;;;;6.00;5.40;;;21.90;99.90;;;;;;5090600;28;20223;-59
2023/06/17 07:10:49;;;;;;;6.13;5.53;;;22.00;99.90;;;;;;5089290;28;20223;-59
2023/06/17 07:13:18;;;;;;;6.47;5.77;;;22.20;99.90;;;;;;5089063;28;20211;-60
2023/06/17 07:15:46;;;;;;;6.57;5.97;;;22.30;99.90;;;;;;5071804;28;20223;-59
2023/06/17 07:18:15;;;;;;;6.57;5.67;;;22.40;99.90;;;;;;5090159;28;20196;-59
2023/06/17 07:20:43;;;;;;;6.27;5.50;;;22.40;99.90;;;;;;5081587;28;20226;-59
2023/06/17 07:23:12;;;;;;;6.93;4.60;;;22.40;99.90;;;;;;5081127;28;20872;-59
2023/06/17 07:25:42;;;;;;;6.03;4.53;;;22.50;99.90;;;;;;5087611;28;20212;-60
2023/06/17 07:28:11;;;;;;;7.33;5.40;;;22.60;99.90;;;;;;5084101;28;20234;-59
2023/06/17 07:30:41;;;;;;;11.30;6.23;;;22.70;99.90;;;;;;5089485;28;20310;-60
2023/06/17 07:33:10;;;;;;;8.57;5.43;;;22.90;99.90;;;;;;5084123;28;20609;-58
2023/06/17 07:35:38;;;;;;;12.57;5.90;;;23.00;99.90;;;;;;5069755;28;20192;-59
2023/06/17 07:38:06;;;;;;;10.03;5.60;;;23.10;99.90;;;;;;5086457;28;20271;-60
2023/06/17 07:40:36;;;;;;;8.33;5.90;;;23.20;99.90;;;;;;5086026;28;20222;-59
2023/06/17 07:43:06;;;;;;;8.83;6.07;;;23.40;99.90;;;;;;5087323;28;20238;-59
2023/06/17 07:45:34;;;;;;;10.43;6.10;;;23.60;99.90;;;;;;5087966;28;20213;-59
2023/06/17 07:48:03;;;;;;;8.00;5.60;;;23.60;99.90;;;;;;5081907;28;20192;-59
2023/06/17 07:50:31;;;;;;;8.03;6.17;;;23.70;99.90;;;;;;5082787;28;20234;-59
2023/06/17 07:53:00;;;;;;;9.23;5.67;;;23.80;99.90;;;;;;5067369;28;20224;-60
2023/06/17 07:55:30;;;;;;;10.57;5.30;;;23.90;99.90;;;;;;5084260;28;20753;-59
2023/06/17 07:57:58;;;;;;;8.83;6.03;;;23.80;99.90;;;;;;5082242;28;20225;-59
2023/06/17 08:00:28;;;;;;;6.13;5.63;;;23.80;99.90;;;;;;5063255;28;20193;-59
2023/06/17 08:02:56;;;;;;;5.90;5.30;;;23.80;99.90;;;;;;5071681;28;20192;-59
2023/06/17 08:05:25;;;;;;;7.87;5.33;;;24.00;99.90;;;;;;5079969;28;20258;-59
2023/06/17 08:07:57;;;;;;;6.57;5.47;;;24.10;99.90;;;;;;5082239;28;20249;-59
2023/06/17 08:10:25;;;;;;;8.83;5.77;;;24.10;99.90;;;;;;5067315;28;20225;-59
2023/06/17 08:12:53;;;;;;;10.67;5.80;;;24.20;99.90;;;;;;5082552;28;20220;-59
2023/06/17 08:15:22;;;;;;;7.47;4.97;;;24.20;99.90;;;;;;5088869;28;20193;-60
2023/06/17 08:17:52;;;;;;;7.40;5.40;;;24.50;99.90;;;;;;5087966;28;20217;-59
2023/06/17 08:20:22;;;;;;;5.70;5.20;;;24.60;99.90;;;;;;5087684;28;20226;-59
2023/06/17 08:22:51;;;;;;;6.33;4.97;;;24.70;99.90;;;;;;5085546;28;20723;-59
2023/06/17 08:25:20;;;;;;;5.67;5.10;;;24.90;99.90;;;;;;5089467;28;20244;-59
2023/06/17 08:27:50;;;;;;;8.30;5.40;;;24.90;99.90;;;;;;5089316;28;20574;-59
2023/06/17 08:30:19;;;;;;;5.60;4.77;;;24.90;99.90;;;;;;5072477;28;20675;-59
2023/06/17 08:32:48;;;;;;;8.90;5.03;;;25.20;99.90;;;;;;5083666;28;20567;-59
2023/06/17 08:35:17;;;;;;;5.90;5.00;;;25.30;99.90;;;;;;5083038;28;20237;-59
2023/06/17 08:37:47;;;;;;;4.60;4.30;;;25.40;99.90;;;;;;5075689;28;20311;-60
2023/06/17 08:40:15;;;;;;;6.90;5.33;;;25.50;99.90;;;;;;5061155;28;20827;-60
2023/06/17 08:42:44;;;;;;;5.73;4.97;;;25.50;99.90;;;;;;5084136;28;20235;-60
2023/06/17 08:45:13;;;;;;;5.73;5.23;;;25.50;99.90;;;;;;5084231;28;20672;-59
2023/06/17 08:47:43;;;;;;;5.00;4.60;;;25.60;99.90;;;;;;5084582;28;20191;-60
2023/06/17 08:50:12;;;;;;;5.17;4.70;;;25.70;99.90;;;;;;5081341;28;20293;-60
2023/06/17 08:52:42;;;;;;;10.83;5.77;;;25.80;99.90;;;;;;5085351;28;20227;-60
2023/06/17 08:55:11;;;;;;;5.60;5.00;;;25.80;99.90;;;;;;5086198;28;20759;-60
2023/06/17 08:57:40;;;;;;;17.00;5.40;;;26.00;99.90;;;;;;5087210;28;20223;-60
2023/06/17 09:00:10;;;;;;;6.40;5.10;;;26.30;99.90;;;;;;5084301;28;20210;-58
2023/06/17 09:02:39;;;;;;;6.10;5.50;;;26.70;99.90;;;;;;5080025;28;20223;-60
2023/06/17 09:05:08;;;;;;;4.83;4.53;;;26.60;99.90;;;;;;5084717;28;20301;-60
2023/06/17 09:07:38;;;;;;;10.97;5.07;;;26.60;99.90;;;;;;5085173;28;22133;-60
2023/06/17 09:10:09;;;;;;;5.47;4.73;;;26.50;99.90;;;;;;5088727;28;20215;-60
2023/06/17 09:12:38;;;;;;;7.37;4.60;;;26.50;99.90;;;;;;5061291;28;21050;-59
2023/06/17 09:15:08;;;;;;;5.47;4.50;;;26.60;99.90;;;;;;5086726;28;20199;-60
2023/06/17 09:17:38;;;;;;;7.87;5.10;;;26.60;99.90;;;;;;5085877;28;20245;-59
2023/06/17 09:20:11;;;;;;;7.40;4.83;;;26.90;99.90;;;;;;5083508;28;20255;-60
2023/06/17 09:22:41;;;;;;;8.77;4.83;;;26.90;99.90;;;;;;5085231;28;20814;-60
2023/06/17 09:25:13;;;;;;;5.40;4.87;;;26.80;99.90;;;;;;5089073;28;20703;-60
2023/06/17 09:27:52;;;;;;;7.77;5.00;;;26.80;99.90;;;;;;5081944;28;20257;-60
2023/06/17 09:30:42;;;;;;;5.43;4.87;;;26.90;99.90;;;;;;5083078;28;20728;-60
2023/06/17 09:33:20;;;;;;;9.03;5.13;;;26.90;99.90;;;;;;5084668;28;20185;-60
2023/06/17 09:35:58;;;;;;;5.57;4.70;;;27.00;99.90;;;;;;5086367;28;20532;-60
2023/06/17 09:38:27;;;;;;;8.45;5.10;;;27.20;99.90;;;;;;5066344;28;20331;-60
2023/06/17 09:40:58;;;;;;;6.77;5.07;;;27.50;99.90;;;;;;5087685;28;20222;-60
2023/06/17 09:43:31;;;;;;;5.00;4.60;;;27.50;99.90;;;;;;5088547;28;20227;-60
2023/06/17 09:46:03;;;;;;;7.00;4.80;;;27.40;99.90;;;;;;5088713;28;20298;-60
2023/06/17 09:48:32;;;;;;;6.07;4.53;;;27.30;99.90;;;;;;5082583;28;20230;-60
2023/06/17 09:51:05;;;;;;;9.57;5.27;;;27.50;99.90;;;;;;5082228;28;20212;-60
2023/06/17 09:53:35;;;;;;;6.80;4.40;;;27.70;99.90;;;;;;5067423;28;20219;-60
2023/06/17 09:56:10;;;;;;;8.57;5.15;;;27.50;99.90;;;;;;5084387;28;20224;-60
2023/06/17 09:58:40;;;;;;;5.55;5.05;;;27.80;99.90;;;;;;5081836;28;20223;-60
2023/06/17 10:01:12;;;;;;;6.03;5.03;;;28.00;99.90;;;;;;5082180;28;20258;-60
2023/06/17 10:03:40;;;;;;;6.00;5.45;;;28.30;99.90;;;;;;5086318;28;20240;-60
2023/06/17 10:06:10;;;;;;;5.50;4.97;;;28.40;99.90;;;;;;5087158;28;20189;-60
2023/06/17 10:08:43;;;;;;;6.70;5.20;;;28.30;99.90;;;;;;5088605;28;20223;-60
2023/06/17 10:11:14;;;;;;;6.72;4.82;;;28.40;99.90;;;;;;5085313;28;20635;-60
2023/06/17 10:13:45;;;;;;;5.05;4.60;;;28.60;99.90;;;;;;5088743;28;20288;-60
2023/06/17 10:16:16;;;;;;;7.85;5.43;;;28.60;99.90;;;;;;5085605;28;20220;-60
2023/06/17 10:18:49;;;;;;;5.95;4.93;;;28.70;99.90;;;;;;5081953;28;20961;-60
2023/06/17 10:21:21;;;;;;;9.82;5.20;;;28.70;99.90;;;;;;5087729;28;20198;-60
2023/06/17 10:23:50;;;;;;;6.22;5.35;;;28.80;99.90;;;;;;5083950;28;20196;-60
2023/06/17 10:26:21;;;;;;;5.32;4.80;;;28.60;99.90;;;;;;5087184;28;20590;-60
2023/06/17 10:29:00;;;;;;;5.35;4.88;;;28.60;99.90;;;;;;5083144;28;20222;-60
2023/06/17 10:31:30;;;;;;;6.15;4.57;;;28.40;99.90;;;;;;5085987;28;20222;-60
2023/06/17 10:34:03;;;;;;;4.85;4.55;;;28.40;99.90;;;;;;5088836;28;20218;-60
2023/06/17 10:36:33;;;;;;;5.20;4.80;;;28.40;99.90;;;;;;5091891;28;20215;-60
2023/06/17 10:39:05;;;;;;;7.07;4.60;;;28.60;99.90;;;;;;5092307;28;20214;-60
2023/06/17 10:41:55;;;;;;;5.32;4.90;;;29.00;99.90;;;;;;5089803;28;20227;-60
2023/06/17 10:44:45;;;;;;;4.95;4.60;;;29.00;99.90;;;;;;5091008;28;20223;-60
2023/06/17 10:47:20;;;;;;;6.22;4.20;;;29.20;99.90;;;;;;5085927;28;20302;-60
2023/06/17 10:49:49;;;;;;;6.03;5.03;;;29.60;99.90;;;;;;5090247;28;20221;-60
2023/06/17 10:52:18;;;;;;;7.00;4.80;;;29.80;99.90;;;;;;5089323;28;20217;-60
2023/06/17 10:54:51;;;;;;;7.65;4.68;;;29.70;99.90;;;;;;5091799;28;20219;-60
2023/06/17 10:57:38;;;;;;;8.13;4.55;;;29.50;99.90;;;;;;5091153;28;20257;-60
2023/06/17 11:00:10;;;;;;;5.90;4.95;;;29.50;99.90;;;;;;5088311;28;20197;-60
2023/06/17 11:02:39;;;;;;;5.68;5.28;;;29.60;99.90;;;;;;5090123;28;20287;-60
2023/06/17 11:05:09;;;;;;;5.28;4.82;;;29.70;99.90;;;;;;5091767;28;20221;-60
2023/06/17 11:07:37;;;;;;;5.13;4.65;;;29.50;99.90;;;;;;5073949;28;20229;-60
2023/06/17 11:10:06;;;;;;;7.03;4.75;;;29.40;99.90;;;;;;5093631;28;20236;-60
2023/06/17 11:12:35;;;;;;;6.38;4.50;;;29.50;99.90;;;;;;5089296;28;20241;-60
2023/06/17 11:15:09;;;;;;;6.22;5.32;;;29.50;99.90;;;;;;5090780;28;20713;-59
2023/06/17 11:17:38;;;;;;;4.93;4.53;;;29.40;99.90;;;;;;5085057;28;20212;-60
2023/06/17 11:20:07;;;;;;;7.30;4.43;;;29.40;99.90;;;;;;5092792;28;20364;-60
2023/06/17 11:22:39;;;;;;;4.82;4.47;;;29.60;99.90;;;;;;5090886;28;20235;-60
2023/06/17 11:25:10;;;;;;;5.75;4.50;;;29.80;99.90;;;;;;5091241;28;20225;-60
2023/06/17 11:27:40;;;;;;;4.78;4.47;;;29.80;99.90;;;;;;5090087;28;20223;-59
2023/06/17 11:30:14;;;;;;;5.25;4.30;;;29.90;99.90;;;;;;5085552;28;20215;-60
2023/06/17 11:32:42;;;;;;;4.82;4.43;;;29.80;99.90;;;;;;5090319;28;20193;-60
2023/06/17 11:35:11;;;;;;;9.02;5.22;;;29.80;99.90;;;;;;5090093;28;20249;-59
2023/06/17 11:37:40;;;;;;;7.43;4.05;;;30.00;99.90;;;;;;5082782;28;20592;-60
2023/06/17 11:40:11;;;;;;;5.10;4.60;;;30.30;99.90;;;;;;5089080;28;20217;-59
2023/06/17 11:42:40;;;;;;;5.53;3.90;;;30.20;99.80;;;;;;5090300;28;20231;-59
2023/06/17 11:45:11;;;;;;;4.63;4.20;;;30.20;99.90;;;;;;5084431;28;20190;-59
2023/06/17 11:47:39;;;;;;;9.80;4.40;;;30.10;99.60;;;;;;5085399;28;20674;-59
2023/06/17 11:50:09;;;;;;;5.10;4.60;;;30.00;99.90;;;;;;5083685;28;20656;-60
2023/06/17 11:52:37;;;;;;;4.75;4.10;;;30.00;99.90;;;;;;5083660;28;20764;-60
2023/06/17 11:55:06;;;;;;;4.28;4.07;;;30.00;99.90;;;;;;5082407;28;20317;-60
2023/06/17 11:57:35;;;;;;;7.10;4.20;;;30.00;99.90;;;;;;5086998;28;20232;-61
2023/06/17 12:00:05;;;;;;;8.30;4.40;;;30.00;98.70;;;;;;5081107;28;20219;-60
2023/06/17 12:02:36;;;;;;;8.82;4.68;;;30.00;99.90;;;;;;5079278;28;22023;-61
2023/06/17 12:05:05;;;;;;;5.00;4.60;;;30.10;99.90;;;;;;5072014;28;20225;-60
2023/06/17 12:07:38;;;;;;;4.53;4.20;;;29.90;99.60;;;;;;5085224;28;20252;-60
2023/06/17 12:10:07;;;;;;;6.10;3.90;;;29.70;99.90;;;;;;5088804;28;20222;-61
2023/06/17 12:12:37;;;;;;;4.70;4.10;;;29.60;99.60;;;;;;5086208;28;20299;-60
2023/06/17 12:15:08;;;;;;;4.60;4.03;;;29.40;99.90;;;;;;5086519;28;20612;-60
2023/06/17 12:18:10;;;;;;;10.50;4.80;;;29.50;99.90;;;;;;5081832;28;20253;-60
2023/06/17 12:20:39;;;;;;;6.45;4.40;;;29.60;99.90;;;;;;5066200;28;20222;-60
2023/06/17 12:23:07;;;;;;;5.25;4.75;;;29.70;99.90;;;;;;5090215;28;20220;-60
2023/06/17 12:25:36;;;;;;;4.43;4.22;;;29.90;99.90;;;;;;5092080;28;20227;-61
2023/06/17 12:28:05;;;;;;;4.63;4.28;;;30.00;99.90;;;;;;5085634;28;20217;-60
2023/06/17 12:30:34;;;;;;;5.57;5.00;;;30.10;99.90;;;;;;5089060;28;20227;-60
2023/06/17 12:33:04;;;;;;;5.10;4.35;;;30.30;99.90;;;;;;5086314;28;20197;-60
2023/06/17 12:35:32;;;;;;;4.88;4.47;;;30.30;99.90;;;;;;5084542;28;20220;-60
2023/06/17 12:38:00;;;;;;;5.60;4.63;;;30.30;99.90;;;;;;5086202;28;20236;-60
2023/06/17 12:40:29;;;;;;;7.97;4.10;;;30.20;99.90;;;;;;5067239;28;20232;-60
2023/06/17 12:42:57;;;;;;;4.90;4.38;;;30.20;99.90;;;;;;5065637;28;20229;-60
2023/06/17 12:45:26;;;;;;;4.78;4.28;;;30.20;99.90;;;;;;5067110;28;20198;-60
2023/06/17 12:47:56;;;;;;;5.88;4.40;;;30.10;99.90;;;;;;5067743;28;20194;-60
2023/06/17 12:50:26;;;;;;;6.45;4.03;;;30.00;99.90;;;;;;5067237;28;20574;-60
2023/06/17 12:52:55;;;;;;;5.07;4.63;;;30.00;99.90;;;;;;5067594;28;20225;-60
2023/06/17 12:55:23;;;;;;;5.78;4.40;;;30.00;99.90;;;;;;5069580;28;20230;-60
2023/06/17 12:57:51;;;;;;;5.28;3.97;;;29.90;99.90;;;;;;5070622;28;20617;-60
2023/06/17 13:00:21;;;;;;;4.43;4.13;;;29.90;99.90;;;;;;5064963;28;20213;-60